Terminal Aerodrome Forecast
Issued by NWS

Home | Current Version | Previous Version | Text Only | Print | Product List | Glossary On
Versions: 1 2 3 4 5 6 7 8 9 10 11 12 13 14 15
000
FTUS41 KPBZ 032330
TAFDUJ
TAF
KDUJ 032330Z 0400/0424 24005KT P6SM SCT100
     FM040100 18005KT P6SM SKC
     FM041700 23012G20KT P6SM SCT050=

USA.gov is the U.S. government's official web portal to all federal, state and local government web resources and services.